Time;durP1;ratioP1;P1;durP2;ratioP2;P2;SDS_P1;SDS_P2;PMS_P1;PMS_P2;Temp;Humidity;BMP_temperature;BMP_pressure;BME280_temperature;BME280_humidity;BME280_pressure;Samples;Min_cycle;Max_cycle;Signal;HPM_P1;HPM_P2
2021/10/08 00:02:17;;;;;;;;;17.25;13.00;;;;;12.88;72.71;102541.03;5086994;27;45583;-71
2021/10/08 00:04:42;;;;;;;;;12.25;12.00;;;;;12.85;72.89;102541.13;5073683;27;45676;-71
2021/10/08 00:07:07;;;;;;;;;19.25;14.25;;;;;12.86;72.93;102542.84;5076198;27;45563;-71
2021/10/08 00:09:33;;;;;;;;;17.75;12.75;;;;;12.83;73.01;102540.25;5078308;27;45334;-71
2021/10/08 00:11:58;;;;;;;;;15.75;11.75;;;;;12.79;72.77;102534.22;5075913;27;45434;-71
2021/10/08 00:14:26;;;;;;;;;20.00;16.25;;;;;12.79;73.05;102544.75;5073523;27;45563;-71
2021/10/08 00:16:51;;;;;;;;;17.25;14.25;;;;;12.76;72.99;102544.81;5074750;27;45913;-71
2021/10/08 00:19:18;;;;;;;;;17.50;13.50;;;;;12.74;73.14;102547.50;5072935;27;45346;-71
2021/10/08 00:21:43;;;;;;;;;18.00;13.25;;;;;12.71;73.20;102538.78;5075710;28;45493;-71
2021/10/08 00:24:09;;;;;;;;;17.75;16.00;;;;;12.69;73.12;102541.47;5074756;27;45524;-71
2021/10/08 00:26:34;;;;;;;;;18.00;14.25;;;;;12.67;73.94;102537.97;5074471;27;45501;-71
2021/10/08 00:28:59;;;;;;;;;16.75;13.50;;;;;12.66;73.60;102544.16;5075035;27;45454;-71
2021/10/08 00:31:25;;;;;;;;;15.50;14.00;;;;;12.66;73.20;102538.88;5074804;27;45619;-71
2021/10/08 00:33:50;;;;;;;;;18.50;15.25;;;;;12.65;73.79;102544.22;5090590;27;45691;-71
2021/10/08 00:36:16;;;;;;;;;17.75;13.00;;;;;12.62;73.48;102531.94;5072504;27;45577;-71
2021/10/08 00:38:42;;;;;;;;;17.50;17.00;;;;;12.62;73.48;102536.34;5074565;27;45620;-71
2021/10/08 00:41:08;;;;;;;;;16.75;13.00;;;;;12.60;74.00;102549.59;5074978;27;45525;-71
2021/10/08 00:43:34;;;;;;;;;11.75;10.00;;;;;12.59;73.89;102547.84;5075413;27;46781;-71
2021/10/08 00:46:01;;;;;;;;;14.50;14.50;;;;;12.57;74.16;102544.38;5075472;27;45433;-71
2021/10/08 00:48:26;;;;;;;;;16.50;13.00;;;;;12.55;73.76;102548.81;5074161;27;45591;-71
2021/10/08 00:50:51;;;;;;;;;10.50;10.50;;;;;12.53;74.23;102540.94;5077963;27;45471;-71
2021/10/08 00:53:19;;;;;;;;;12.00;10.00;;;;;12.54;74.44;102547.09;5077989;27;46330;-71
2021/10/08 00:55:47;;;;;;;;;14.75;12.25;;;;;12.54;74.48;102550.59;5072540;27;45514;-71
2021/10/08 00:58:16;;;;;;;;;11.50;10.50;;;;;12.56;74.74;102550.53;5080665;27;45692;-71
2021/10/08 01:00:44;;;;;;;;;11.00;11.00;;;;;12.57;74.82;102549.63;5075836;27;45339;-71
2021/10/08 01:03:10;;;;;;;;;10.50;9.00;;;;;12.55;75.03;102538.28;5076168;27;45510;-71
2021/10/08 01:05:37;;;;;;;;;14.25;11.75;;;;;12.52;75.00;102540.97;5079211;27;45594;-71
2021/10/08 01:08:03;;;;;;;;;12.75;12.50;;;;;12.47;75.18;102537.56;5086316;27;45378;-71
2021/10/08 01:10:29;;;;;;;;;10.00;8.75;;;;;12.52;75.20;102538.31;5083458;27;45548;-71
2021/10/08 01:12:54;;;;;;;;;18.25;11.00;;;;;12.45;75.35;102534.97;5075189;27;48196;-71
2021/10/08 01:15:19;;;;;;;;;13.25;10.25;;;;;12.57;75.27;102544.38;5074285;27;45475;-71
2021/10/08 01:17:49;;;;;;;;;14.50;11.25;;;;;12.51;75.40;102533.97;5075166;27;49223;-71
2021/10/08 01:20:14;;;;;;;;;18.25;13.25;;;;;12.57;75.33;102546.13;5076380;27;45543;-71
2021/10/08 01:22:40;;;;;;;;;12.75;12.00;;;;;12.54;75.34;102539.19;5077654;27;46475;-69
2021/10/08 01:25:06;;;;;;;;;15.50;12.00;;;;;12.53;75.34;102538.31;5063786;27;45428;-69
2021/10/08 01:27:31;;;;;;;;;16.75;13.25;;;;;12.48;75.52;102537.53;5072918;28;45536;-69
2021/10/08 01:29:59;;;;;;;;;12.75;12.75;;;;;12.54;75.29;102545.31;5072250;27;45495;-69
2021/10/08 01:32:28;;;;;;;;;17.75;15.25;;;;;12.53;75.10;102537.44;5072770;27;45605;-69
2021/10/08 01:34:53;;;;;;;;;16.25;12.75;;;;;12.49;75.29;102536.63;5076698;27;45540;-69
2021/10/08 01:37:19;;;;;;;;;15.25;11.75;;;;;12.48;75.78;102539.31;5074483;27;45447;-70
2021/10/08 01:39:44;;;;;;;;;17.75;11.25;;;;;12.44;75.56;102538.50;5077175;27;45941;-69
2021/10/08 01:42:10;;;;;;;;;12.75;11.75;;;;;12.44;75.62;102541.13;5073786;27;45473;-69
2021/10/08 01:44:36;;;;;;;;;17.00;12.25;;;;;12.46;75.97;102541.09;5073109;27;45440;-69
2021/10/08 01:47:02;;;;;;;;;18.00;15.50;;;;;12.41;75.78;102533.28;5077443;27;45463;-69
2021/10/08 01:49:28;;;;;;;;;13.00;10.50;;;;;12.42;75.61;102547.34;5083123;27;45499;-69
2021/10/08 01:51:53;;;;;;;;;12.50;11.25;;;;;12.40;75.98;102536.84;5075007;27;46205;-69
2021/10/08 01:54:18;;;;;;;;;13.50;9.75;;;;;12.43;76.13;102539.41;5075603;27;45617;-69
2021/10/08 01:56:45;;;;;;;;;17.75;12.00;;;;;12.41;76.07;102535.91;5072877;27;45637;-69
2021/10/08 01:59:11;;;;;;;;;13.00;11.75;;;;;12.42;75.91;102540.28;5074393;27;45505;-69
2021/10/08 02:01:37;;;;;;;;;13.00;9.75;;;;;12.39;76.04;102540.38;5082583;27;45454;-69
2021/10/08 02:04:03;;;;;;;;;13.00;11.00;;;;;12.37;76.02;102543.94;5084456;27;45371;-69
2021/10/08 02:06:28;;;;;;;;;15.50;12.75;;;;;12.35;76.26;102540.47;5075462;27;45345;-69
2021/10/08 02:08:54;;;;;;;;;15.75;11.50;;;;;12.33;76.62;102540.50;5072544;27;45470;-69
2021/10/08 02:11:19;;;;;;;;;17.75;13.00;;;;;12.32;76.27;102532.63;5080150;27;45509;-69
2021/10/08 02:13:44;;;;;;;;;13.00;11.00;;;;;12.34;76.35;102536.09;5072665;27;45351;-69
2021/10/08 02:16:10;;;;;;;;;12.00;10.50;;;;;12.31;76.29;102536.16;5073696;27;45349;-69
2021/10/08 02:18:35;;;;;;;;;9.00;8.75;;;;;12.27;76.14;102538.00;5074349;27;45365;-69
2021/10/08 02:21:01;;;;;;;;;15.25;10.00;;;;;12.25;76.26;102540.66;5077199;27;46249;-69
2021/10/08 02:23:26;;;;;;;;;11.50;10.00;;;;;12.23;76.30;102541.59;5083626;27;45531;-69
2021/10/08 02:25:52;;;;;;;;;14.50;13.25;;;;;12.22;76.31;102537.25;5085868;27;45544;-69
2021/10/08 02:28:17;;;;;;;;;12.75;12.00;;;;;12.23;76.26;102546.88;5073042;27;45575;-69
2021/10/08 02:30:42;;;;;;;;;10.75;9.50;;;;;12.18;76.23;102539.06;5065559;27;46597;-69
2021/10/08 02:33:08;;;;;;;;;16.00;12.50;;;;;12.12;76.33;102528.66;5072123;27;45511;-69
2021/10/08 02:35:33;;;;;;;;;14.25;10.25;;;;;12.11;76.23;102533.94;5076573;27;45485;-69
2021/10/08 02:37:58;;;;;;;;;15.25;11.75;;;;;12.07;76.20;102533.16;5090361;27;45412;-69
2021/10/08 02:40:24;;;;;;;;;13.75;13.75;;;;;12.02;76.08;102533.25;5078321;27;45543;-69
2021/10/08 02:42:49;;;;;;;;;12.25;12.25;;;;;11.99;76.04;102525.38;5078254;27;45500;-69
2021/10/08 02:45:15;;;;;;;;;9.50;8.50;;;;;11.97;75.97;102534.25;5075289;27;45355;-69
2021/10/08 02:47:41;;;;;;;;;12.00;9.75;;;;;11.99;76.46;102535.06;5081386;27;45543;-69
2021/10/08 02:50:07;;;;;;;;;12.00;10.25;;;;;11.96;76.62;102540.41;5088293;27;46244;-69
2021/10/08 02:52:33;;;;;;;;;15.50;12.00;;;;;11.94;76.71;102537.78;5076480;27;45496;-69
2021/10/08 02:54:58;;;;;;;;;12.25;8.50;;;;;11.95;76.89;102543.91;5077783;27;45504;-69
2021/10/08 02:57:24;;;;;;;;;10.50;10.50;;;;;11.92;76.99;102541.34;5084308;27;45572;-70
2021/10/08 02:59:49;;;;;;;;;10.50;8.75;;;;;11.91;77.03;102534.38;5087345;27;45667;-69
2021/10/08 03:02:14;;;;;;;;;12.00;10.50;;;;;11.87;77.15;102532.69;5083001;27;46116;-69
2021/10/08 03:04:42;;;;;;;;;12.25;9.75;;;;;11.89;76.87;102538.78;5078134;27;45437;-69
2021/10/08 03:07:07;;;;;;;;;9.00;9.00;;;;;11.84;76.83;102538.84;5076136;27;45546;-69
2021/10/08 03:09:33;;;;;;;;;9.75;9.25;;;;;11.80;77.11;102541.53;5075676;27;45461;-69
2021/10/08 03:11:58;;;;;;;;;13.75;9.00;;;;;11.80;77.36;102533.66;5075669;27;45519;-69
2021/10/08 03:14:23;;;;;;;;;13.00;11.25;;;;;11.74;77.24;102535.53;5075313;27;45299;-69
2021/10/08 03:16:49;;;;;;;;;13.25;10.00;;;;;11.72;77.12;102526.75;5075491;27;45389;-69
2021/10/08 03:19:14;;;;;;;;;12.50;10.75;;;;;11.71;77.18;102537.34;5075754;27;45515;-69
2021/10/08 03:21:40;;;;;;;;;12.00;9.75;;;;;11.70;77.32;102540.88;5080950;27;45777;-69
2021/10/08 03:24:06;;;;;;;;;13.25;10.75;;;;;11.67;77.57;102538.28;5076737;27;45499;-69
2021/10/08 03:26:31;;;;;;;;;14.75;11.25;;;;;11.65;77.50;102540.97;5074263;27;45561;-69
2021/10/08 03:28:56;;;;;;;;;13.25;11.00;;;;;11.64;77.41;102540.97;5075578;27;46243;-69
2021/10/08 03:31:22;;;;;;;;;12.50;10.75;;;;;11.61;77.74;102541.91;5089042;27;45285;-69
2021/10/08 03:33:47;;;;;;;;;12.00;8.75;;;;;11.58;77.67;102533.19;5087064;27;45435;-69
2021/10/08 03:36:20;;;;;;;;;13.50;11.25;;;;;11.58;77.31;102541.94;5079621;27;45394;-69
2021/10/08 03:38:46;;;;;;;;;9.00;9.00;;;;;11.60;77.71;102539.31;5075527;27;46411;-69
2021/10/08 03:41:16;;;;;;;;;12.50;12.50;;;;;11.59;77.25;102545.44;5085739;27;45368;-69
2021/10/08 03:43:43;;;;;;;;;10.25;9.00;;;;;11.58;77.59;102548.97;5089502;27;45335;-69
2021/10/08 03:46:10;;;;;;;;;12.50;10.25;;;;;11.56;77.56;102545.53;5077117;27;45324;-69
2021/10/08 03:51:27;;;;;;;;;10.75;10.25;;;;;11.52;77.80;102546.47;5076591;27;45365;-69
2021/10/08 03:53:53;;;;;;;;;11.75;10.75;;;;;11.51;78.02;102553.50;5075966;27;45371;-69
2021/10/08 03:56:19;;;;;;;;;15.25;13.00;;;;;11.47;77.71;102549.19;5082966;27;45289;-69
2021/10/08 03:58:44;;;;;;;;;15.25;11.00;;;;;11.45;78.10;102543.94;5074978;27;45439;-69
2021/10/08 04:01:09;;;;;;;;;15.00;11.50;;;;;11.44;77.85;102549.25;5075505;27;45629;-69
2021/10/08 04:03:35;;;;;;;;;10.25;9.25;;;;;11.44;78.06;102542.22;5076768;27;45349;-69
2021/10/08 04:06:00;;;;;;;;;13.25;11.50;;;;;11.43;78.38;102550.13;5075566;27;45511;-69
2021/10/08 04:08:25;;;;;;;;;12.67;10.67;;;;;11.44;78.01;102550.13;5074389;28;54443;-69
2021/10/08 04:10:51;;;;;;;;;14.00;13.50;;;;;11.36;78.35;102548.50;5073013;27;45283;-69
2021/10/08 04:13:16;;;;;;;;;17.50;11.00;;;;;11.43;78.25;102555.38;5078784;27;45581;-69
2021/10/08 04:15:41;;;;;;;;;11.75;11.00;;;;;11.44;78.26;102558.00;5077167;27;45504;-69
2021/10/08 04:18:07;;;;;;;;;22.50;12.00;;;;;11.39;78.20;102545.84;5081293;27;45464;-69
2021/10/08 04:20:32;;;;;;;;;14.25;9.25;;;;;11.41;78.53;102547.53;5073719;27;45457;-69
2021/10/08 04:22:57;;;;;;;;;14.25;10.75;;;;;11.42;78.26;102553.66;5079530;27;45466;-69
2021/10/08 04:25:23;;;;;;;;;16.00;11.50;;;;;11.42;78.28;102553.66;5083676;27;45577;-69
2021/10/08 04:27:48;;;;;;;;;15.75;11.50;;;;;11.41;78.68;102560.69;5080637;27;46266;-69
2021/10/08 04:30:14;;;;;;;;;13.75;12.50;;;;;11.36;78.74;102546.72;5079455;27;45460;-69
2021/10/08 04:32:39;;;;;;;;;16.00;13.00;;;;;11.41;78.64;102555.41;5074887;27;45465;-69
2021/10/08 04:35:04;;;;;;;;;10.00;10.00;;;;;11.40;78.49;102556.31;5081326;27;45653;-69
2021/10/08 04:37:30;;;;;;;;;13.50;12.00;;;;;11.41;78.67;102565.09;5073778;27;46215;-69
2021/10/08 04:39:55;;;;;;;;;20.00;17.75;;;;;11.40;78.52;102560.72;5081315;27;45357;-69
2021/10/08 04:42:20;;;;;;;;;12.50;10.00;;;;;11.41;78.46;102560.69;5076196;27;45488;-69
2021/10/08 04:44:46;;;;;;;;;15.75;10.50;;;;;11.37;78.65;102548.47;5073123;27;45363;-69
2021/10/08 04:47:12;;;;;;;;;14.00;14.00;;;;;11.37;78.50;102550.22;5077495;27;46374;-69
2021/10/08 04:49:38;;;;;;;;;13.75;12.00;;;;;11.29;78.67;102547.75;5077831;27;46808;-69
2021/10/08 04:52:03;;;;;;;;;16.75;15.25;;;;;11.37;78.55;102553.72;5074538;27;45347;-70
2021/10/08 04:54:29;;;;;;;;;14.25;11.50;;;;;11.40;78.37;102566.00;5083621;27;45432;-69
2021/10/08 04:56:55;;;;;;;;;14.75;14.00;;;;;11.38;78.56;102557.22;5077136;27;45425;-68
2021/10/08 04:59:20;;;;;;;;;16.75;15.00;;;;;11.22;78.94;102530.31;5071577;27;46761;-69
2021/10/08 05:01:45;;;;;;;;;16.00;14.00;;;;;11.39;78.67;102565.13;5071731;27;45500;-68
2021/10/08 05:04:11;;;;;;;;;16.50;13.50;;;;;11.33;78.81;102548.53;5069578;27;45401;-68
2021/10/08 05:06:36;;;;;;;;;16.25;14.00;;;;;11.36;78.70;102565.16;5078087;27;48362;-69
2021/10/08 05:09:01;;;;;;;;;17.00;13.00;;;;;11.34;78.78;102555.56;5074517;27;45236;-69
2021/10/08 05:11:27;;;;;;;;;11.00;8.00;;;;;11.32;79.18;102557.34;5075649;27;45241;-69
2021/10/08 05:13:52;;;;;;;;;17.00;14.75;;;;;11.33;78.97;102569.59;5075777;27;45287;-69
2021/10/08 05:16:17;;;;;;;;;15.50;14.00;;;;;11.33;79.15;102561.69;5074533;27;45466;-68
2021/10/08 05:18:43;;;;;;;;;19.25;13.25;;;;;11.29;79.09;102557.41;5077070;27;45527;-69
2021/10/08 05:21:08;;;;;;;;;25.00;15.25;;;;;11.26;79.34;102553.03;5077892;27;45765;-69
2021/10/08 05:23:34;;;;;;;;;15.00;12.50;;;;;11.29;79.32;102560.91;5075613;27;46067;-69
2021/10/08 05:26:00;;;;;;;;;15.00;15.00;;;;;11.31;79.36;102568.78;5074019;27;45610;-69
2021/10/08 05:28:26;;;;;;;;;13.75;11.75;;;;;11.28;79.58;102561.81;5073607;27;45844;-69
2021/10/08 05:30:52;;;;;;;;;15.00;13.75;;;;;11.26;79.16;102560.94;5085713;27;45453;-68
2021/10/08 05:33:18;;;;;;;;;15.00;13.50;;;;;11.27;79.05;102573.19;5073915;27;45310;-68
2021/10/08 05:35:44;;;;;;;;;17.75;13.00;;;;;11.26;79.27;102567.97;5073176;27;46061;-68
2021/10/08 05:38:09;;;;;;;;;16.00;15.75;;;;;11.22;79.21;102562.78;5072984;27;45277;-68
2021/10/08 05:40:34;;;;;;;;;19.50;15.50;;;;;11.23;79.14;102568.91;5073893;27;45164;-68
2021/10/08 05:43:01;;;;;;;;;19.75;18.00;;;;;11.23;79.12;102574.16;5075417;27;45432;-68
2021/10/08 05:45:27;;;;;;;;;15.75;14.00;;;;;11.20;79.05;102563.69;5072969;28;47142;-68
2021/10/08 05:47:52;;;;;;;;;23.00;14.75;;;;;11.20;79.36;102577.72;5073909;27;45472;-68
2021/10/08 05:50:17;;;;;;;;;21.00;15.25;;;;;11.21;79.25;102578.56;5070732;28;45436;-68
2021/10/08 05:52:43;;;;;;;;;18.00;14.00;;;;;11.19;79.47;102578.59;5073167;27;50409;-68
2021/10/08 05:55:08;;;;;;;;;14.50;13.00;;;;;11.19;79.37;102578.59;5073429;27;45498;-68
2021/10/08 05:57:33;;;;;;;;;16.25;15.25;;;;;11.18;78.98;102570.75;5075358;28;45404;-68
2021/10/08 05:59:59;;;;;;;;;18.25;14.75;;;;;11.17;79.22;102561.97;5073607;27;45454;-68
2021/10/08 06:02:24;;;;;;;;;16.00;15.00;;;;;11.15;78.98;102570.78;5071858;27;45675;-68
2021/10/08 06:04:50;;;;;;;;;15.75;14.25;;;;;11.13;79.12;102568.19;5073614;27;47339;-68
2021/10/08 06:07:15;;;;;;;;;16.00;14.75;;;;;11.16;79.35;102568.13;5072611;27;45364;-68
2021/10/08 06:09:45;;;;;;;;;16.50;16.25;;;;;11.12;78.99;102565.56;5073597;28;53857;-68
2021/10/08 06:12:12;;;;;;;;;14.00;13.00;;;;;11.17;79.19;102577.78;5074577;27;45273;-68
2021/10/08 06:14:37;;;;;;;;;20.00;17.50;;;;;11.18;79.12;102576.00;5076131;27;45518;-68
2021/10/08 06:17:03;;;;;;;;;20.25;16.25;;;;;11.18;79.30;102581.28;5076037;27;45583;-68
2021/10/08 06:19:28;;;;;;;;;14.75;14.00;;;;;11.19;79.17;102575.13;5074293;27;45355;-69
2021/10/08 06:21:54;;;;;;;;;19.75;16.00;;;;;11.23;79.60;102589.97;5067849;27;45305;-69
2021/10/08 06:24:19;;;;;;;;;23.50;17.25;;;;;11.24;79.34;102587.28;5074225;28;45452;-68
2021/10/08 06:26:44;;;;;;;;;23.00;15.25;;;;;11.27;79.36;102590.75;5075456;28;45601;-68
2021/10/08 06:29:09;;;;;;;;;19.50;16.75;;;;;11.29;79.59;102595.13;5075703;27;57944;-68
2021/10/08 06:31:35;;;;;;;;;20.50;18.00;;;;;11.31;79.60;102601.22;5074387;28;45512;-68
2021/10/08 06:34:00;;;;;;;;;22.75;17.00;;;;;11.35;79.23;102594.16;5076685;27;53758;-68
2021/10/08 06:36:25;;;;;;;;;20.75;17.25;;;;;11.37;79.62;102594.97;5075698;28;45594;-68
2021/10/08 06:38:51;;;;;;;;;23.00;19.75;;;;;11.44;79.62;102599.28;5076575;27;45314;-68
2021/10/08 06:41:16;;;;;;;;;24.50;18.00;;;;;11.50;79.20;102610.56;5071705;27;45731;-70
2021/10/08 06:43:41;;;;;;;;;25.50;20.50;;;;;11.51;79.59;102595.63;5068103;28;46152;-70
2021/10/08 06:46:07;;;;;;;;;25.75;22.00;;;;;11.61;79.67;102599.84;5074612;28;45240;-69
2021/10/08 06:48:32;;;;;;;;;27.00;20.75;;;;;11.66;79.57;102597.13;5077178;28;45374;-69
2021/10/08 06:50:57;;;;;;;;;36.25;21.00;;;;;11.74;79.60;102600.47;5075787;27;45463;-69
2021/10/08 06:53:24;;;;;;;;;28.50;22.00;;;;;11.83;79.39;102608.25;5075780;27;46428;-69
2021/10/08 06:55:49;;;;;;;;;27.50;22.50;;;;;11.85;79.26;102603.84;5074222;28;45941;-69
2021/10/08 06:58:14;;;;;;;;;29.50;23.50;;;;;11.94;79.43;102608.06;5075081;27;45362;-69
2021/10/08 07:00:40;;;;;;;;;28.75;21.00;;;;;12.07;79.25;102612.22;5077460;27;45375;-69
2021/10/08 07:03:05;;;;;;;;;24.75;22.25;;;;;12.17;78.53;102608.50;5073988;27;45682;-69
2021/10/08 07:05:30;;;;;;;;;27.00;24.33;;;;;12.36;78.65;102610.75;5074639;28;54121;-69
2021/10/08 07:07:56;;;;;;;;;29.00;25.00;;;;;12.67;78.80;102614.47;5075673;27;45398;-69
2021/10/08 07:10:21;;;;;;;;;26.33;22.00;;;;;13.07;78.15;102613.59;5074906;28;53647;-69
2021/10/08 07:12:47;;;;;;;;;26.25;24.25;;;;;13.43;78.01;102614.50;5076598;28;45401;-69
2021/10/08 07:15:17;;;;;;;;;31.75;24.25;;;;;14.24;77.55;102620.25;5066417;27;45755;-70
2021/10/08 07:17:49;;;;;;;;;25.75;19.50;;;;;15.13;75.79;102613.19;5074660;27;45512;-69
2021/10/08 07:20:16;;;;;;;;;26.00;23.25;;;;;15.76;73.73;102616.41;5074779;28;45350;-69
2021/10/08 07:22:42;;;;;;;;;26.50;22.75;;;;;16.07;72.38;102613.56;5073880;28;46120;-69
2021/10/08 07:25:08;;;;;;;;;31.50;23.75;;;;;16.87;72.13;102619.44;5076030;28;46127;-69
2021/10/08 07:27:35;;;;;;;;;25.75;21.00;;;;;17.53;69.57;102618.53;5074876;28;45394;-69
2021/10/08 07:30:01;;;;;;;;;26.25;23.75;;;;;18.48;68.98;102616.09;5075353;27;45626;-69
2021/10/08 07:32:28;;;;;;;;;24.25;22.50;;;;;19.74;67.90;102610.84;5075083;27;45580;-70
2021/10/08 07:34:54;;;;;;;;;21.00;20.25;;;;;20.97;64.43;102609.53;5074701;27;45881;-69
2021/10/08 07:37:19;;;;;;;;;25.25;22.25;;;;;22.33;62.15;102615.66;5073656;28;45381;-70
2021/10/08 07:39:44;;;;;;;;;38.25;33.50;;;;;23.52;59.98;102611.53;5075896;28;45326;-69
2021/10/08 07:42:10;;;;;;;;;27.50;22.75;;;;;24.83;57.21;102618.34;5074676;27;45430;-70
2021/10/08 07:44:36;;;;;;;;;24.25;23.50;;;;;26.05;55.63;102621.69;5071995;28;45409;-71
2021/10/08 07:47:01;;;;;;;;;65.00;51.50;;;;;27.13;52.68;102606.59;5077691;27;45637;-70
2021/10/08 07:49:26;;;;;;;;;44.25;37.25;;;;;28.18;51.81;102612.88;5074371;28;45626;-70
2021/10/08 07:51:53;;;;;;;;;26.50;22.00;;;;;29.19;48.81;102608.34;5085313;27;54284;-71
2021/10/08 07:54:18;;;;;;;;;18.50;18.50;;;;;30.07;47.06;102597.22;5074975;27;45685;-70
2021/10/08 07:56:44;;;;;;;;;23.50;19.75;;;;;31.04;46.11;102614.81;5074975;27;45432;-71
2021/10/08 07:59:09;;;;;;;;;15.25;15.00;;;;;31.68;43.60;102614.53;5072872;27;45507;-71
2021/10/08 08:01:34;;;;;;;;;18.25;17.50;;;;;32.53;42.29;102609.25;5074239;27;45424;-71
2021/10/08 08:04:00;;;;;;;;;18.00;17.00;;;;;33.48;40.94;102612.50;5071916;27;45460;-71
2021/10/08 08:06:25;;;;;;;;;24.25;21.50;;;;;34.23;40.16;102613.00;5070937;28;45317;-71
2021/10/08 08:08:51;;;;;;;;;20.50;20.50;;;;;34.83;38.14;102617.00;5071856;27;45285;-71
2021/10/08 08:11:16;;;;;;;;;26.00;19.50;;;;;35.39;37.75;102608.53;5066903;27;54286;-71
2021/10/08 08:13:41;;;;;;;;;19.75;18.75;;;;;36.11;36.77;102610.75;5066091;28;46570;-71
2021/10/08 08:16:07;;;;;;;;;17.75;16.75;;;;;36.66;35.97;102612.97;5073581;28;52007;-71
2021/10/08 08:18:32;;;;;;;;;18.50;16.25;;;;;37.17;34.39;102614.75;5042400;27;45276;-71
2021/10/08 08:20:57;;;;;;;;;18.00;14.50;;;;;37.57;33.63;102611.31;5044159;28;46572;-71
2021/10/08 08:23:23;;;;;;;;;18.75;16.00;;;;;37.95;31.99;102619.19;5042599;28;49412;-71
2021/10/08 08:25:49;;;;;;;;;20.00;17.00;;;;;38.31;31.83;102616.22;5042613;28;50617;-71
2021/10/08 08:28:15;;;;;;;;;18.75;17.50;;;;;38.56;32.00;102619.28;5054148;28;45496;-71
2021/10/08 08:30:42;;;;;;;;;15.25;14.25;;;;;38.82;30.45;102615.78;5047840;28;45371;-71
2021/10/08 08:33:08;;;;;;;;;16.25;13.75;;;;;39.27;30.77;102618.81;5044080;28;45661;-71
2021/10/08 08:35:33;;;;;;;;;14.50;14.50;;;;;39.44;29.35;102616.47;5047217;28;45344;-71
2021/10/08 08:37:59;;;;;;;;;6.00;5.00;;;;;39.42;28.46;102615.88;5052220;28;45643;-70
2021/10/08 08:40:25;;;;;;;;;27.00;25.75;;;;;39.50;29.05;102612.88;5045415;28;45926;-70
2021/10/08 08:42:55;;;;;;;;;15.25;14.00;;;;;39.88;27.78;102613.03;5048815;28;45475;-70
2021/10/08 08:45:20;;;;;;;;;19.00;15.75;;;;;40.24;27.89;102610.81;5049235;28;45331;-71
2021/10/08 08:47:58;;;;;;;;;17.25;15.50;;;;;41.00;27.48;102615.53;5054487;28;45387;-70
2021/10/08 08:50:23;;;;;;;;;15.75;15.00;;;;;41.80;27.32;102618.44;5048761;28;47288;-70
2021/10/08 08:52:49;;;;;;;;;15.50;15.50;;;;;42.19;26.47;102623.53;5053681;28;45415;-70
2021/10/08 08:55:14;;;;;;;;;17.75;17.00;;;;;42.55;25.30;102616.25;5052733;28;47943;-70
2021/10/08 08:57:39;;;;;;;;;13.00;12.75;;;;;42.96;25.03;102622.88;5050685;28;45492;-70
2021/10/08 09:00:13;;;;;;;;;13.00;10.75;;;;;43.46;24.41;102614.22;5035895;28;46261;-70
2021/10/08 09:02:40;;;;;;;;;11.50;8.25;;;;;43.73;23.34;102611.78;5053927;28;45624;-70
2021/10/08 09:05:16;;;;;;;;;11.00;9.50;;;;;43.68;24.30;102611.66;5053427;28;45312;-70
2021/10/08 09:07:41;;;;;;;;;12.25;11.25;;;;;43.82;23.28;102615.06;5053683;28;45491;-70
2021/10/08 09:10:21;;;;;;;;;18.50;17.00;;;;;44.06;22.99;102613.88;5050524;28;45477;-70
2021/10/08 09:12:48;;;;;;;;;13.75;9.00;;;;;44.01;22.22;102611.88;5054872;28;45666;-70
2021/10/08 09:15:15;;;;;;;;;8.75;8.75;;;;;44.02;23.01;102607.19;5053423;28;45409;-70
2021/10/08 09:17:41;;;;;;;;;8.00;8.00;;;;;44.04;21.94;102609.69;5063801;28;45477;-69
2021/10/08 09:20:12;;;;;;;;;8.75;8.75;;;;;43.90;21.54;102606.34;5073485;27;45487;-68
2021/10/08 09:22:38;;;;;;;;;7.75;7.25;;;;;43.79;22.03;102610.78;5072187;27;45389;-70
2021/10/08 09:25:12;;;;;;;;;10.25;8.00;;;;;43.50;21.09;102601.56;5073911;27;45341;-70
2021/10/08 09:27:40;;;;;;;;;8.50;8.00;;;;;42.91;20.87;102598.69;5073755;28;45478;-70
2021/10/08 09:30:06;;;;;;;;;9.75;8.00;;;;;42.39;21.23;102598.41;5072571;27;46812;-70
2021/10/08 09:32:42;;;;;;;;;8.75;7.75;;;;;41.77;22.30;102597.69;5073460;27;45492;-70
2021/10/08 09:35:09;;;;;;;;;5.50;5.50;;;;;40.88;22.00;102594.16;5073146;28;45382;-70
2021/10/08 09:37:35;;;;;;;;;7.25;5.00;;;;;39.85;22.84;102590.63;5073868;27;45639;-70
2021/10/08 09:40:00;;;;;;;;;6.25;6.25;;;;;39.21;23.52;102585.81;5069080;28;46458;-69
2021/10/08 09:42:34;;;;;;;;;6.75;5.00;;;;;38.78;24.24;102588.91;5071217;28;45595;-69
2021/10/08 09:45:00;;;;;;;;;8.00;7.50;;;;;38.18;24.36;102585.94;5073075;28;46063;-69
2021/10/08 09:47:27;;;;;;;;;5.00;5.00;;;;;37.74;25.01;102584.41;5071205;27;45616;-70
2021/10/08 09:50:07;;;;;;;;;6.00;4.75;;;;;37.11;24.79;102575.25;5072593;27;47053;-70
2021/10/08 09:52:34;;;;;;;;;7.00;5.00;;;;;36.68;25.40;102567.03;5064446;28;45788;-70
2021/10/08 09:55:05;;;;;;;;;5.00;3.25;;;;;36.28;25.52;102561.09;5065139;27;45303;-70
2021/10/08 09:57:54;;;;;;;;;6.25;4.25;;;;;35.95;25.61;102570.75;5074211;28;45298;-70
2021/10/08 10:00:40;;;;;;;;;9.00;5.50;;;;;35.46;25.85;102572.13;5072856;28;46609;-70
2021/10/08 10:03:08;;;;;;;;;5.00;5.00;;;;;35.17;26.27;102569.28;5070985;28;45276;-70
2021/10/08 10:05:34;;;;;;;;;6.00;6.00;;;;;34.79;26.67;102569.22;5072801;27;45555;-70
2021/10/08 10:08:00;;;;;;;;;6.25;5.50;;;;;34.40;26.47;102563.78;5072398;28;45399;-70
2021/10/08 10:10:26;;;;;;;;;3.25;2.50;;;;;34.37;26.24;102567.75;5073352;28;47805;-70
2021/10/08 10:12:52;;;;;;;;;2.50;2.50;;;;;34.33;26.26;102568.28;5074290;27;45619;-69
2021/10/08 10:15:19;;;;;;;;;3.25;3.25;;;;;34.02;27.06;102560.91;5072567;27;45542;-70
2021/10/08 10:17:45;;;;;;;;;4.00;4.00;;;;;33.47;26.59;102557.13;5072616;27;45530;-70
2021/10/08 10:20:11;;;;;;;;;2.75;2.75;;;;;32.88;27.61;102559.13;5072594;27;45463;-70
2021/10/08 10:22:38;;;;;;;;;4.75;3.75;;;;;32.30;27.85;102556.41;5071449;27;45615;-70
2021/10/08 10:25:04;;;;;;;;;4.00;3.75;;;;;31.71;28.66;102556.28;5073482;27;45751;-69
2021/10/08 10:27:30;;;;;;;;;3.75;3.75;;;;;31.28;29.23;102549.91;5073257;28;45474;-70
2021/10/08 10:29:56;;;;;;;;;4.25;4.00;;;;;30.83;29.57;102561.69;5066641;27;46464;-70
2021/10/08 10:32:23;;;;;;;;;3.25;3.25;;;;;30.44;29.52;102552.09;5066376;28;45647;-70
2021/10/08 10:34:48;;;;;;;;;3.75;3.75;;;;;29.97;30.01;102557.59;5071783;28;45530;-70
2021/10/08 10:37:41;;;;;;;;;5.50;4.75;;;;;29.63;31.17;102552.69;5072770;27;45343;-70
2021/10/08 10:40:21;;;;;;;;;4.00;4.00;;;;;29.27;31.01;102547.03;5070867;28;45466;-70
2021/10/08 10:43:18;;;;;;;;;4.25;3.75;;;;;28.90;31.86;102546.88;5072768;28;45596;-69
2021/10/08 10:45:48;;;;;;;;;3.00;3.00;;;;;28.83;32.25;102548.44;5091401;27;45586;-70
2021/10/08 10:48:18;;;;;;;;;5.00;4.00;;;;;28.74;32.03;102543.88;5069732;28;45611;-70
2021/10/08 10:51:10;;;;;;;;;3.00;3.00;;;;;28.67;32.11;102543.59;5072640;27;45533;-69
2021/10/08 10:53:50;;;;;;;;;3.00;3.00;;;;;28.51;32.54;102537.88;5072832;27;45377;-69
2021/10/08 10:56:37;;;;;;;;;4.25;4.25;;;;;28.53;33.14;102544.84;5072332;27;45298;-69
2021/10/08 10:59:23;;;;;;;;;4.00;4.00;;;;;28.51;33.16;102533.31;5075423;28;45514;-69
2021/10/08 11:04:30;;;;;;;;;4.00;4.00;;;;;28.11;33.27;102538.72;5060664;28;45423;-69
2021/10/08 11:07:25;;;;;;;;;1.00;1.00;;;;;27.79;33.82;102534.31;5077821;28;45500;-69
2021/10/08 11:09:56;;;;;;;;;3.25;3.25;;;;;27.58;33.95;102539.72;5054338;28;45413;-69
2021/10/08 11:12:34;;;;;;;;;2.00;2.00;;;;;27.28;34.05;102524.31;5046608;28;45632;-72
2021/10/08 11:15:14;;;;;;;;;2.00;2.00;;;;;27.08;34.26;102544.06;5049214;28;45501;-71
2021/10/08 11:17:52;;;;;;;;;3.75;3.75;;;;;26.96;34.54;102535.13;5039444;28;45892;-71